createdAt,value
2022-10-30T00:01:55.037Z,26.40
2022-10-30T00:06:58.002Z,26.93
2022-10-30T00:12:01.344Z,25.83
2022-10-30T00:17:05.650Z,22.10
2022-10-30T00:27:10.370Z,21.53
2022-10-30T00:32:14.643Z,24.17
2022-10-30T00:37:19.429Z,21.10
2022-10-30T00:42:22.440Z,20.00
2022-10-30T00:47:31.493Z,22.83
2022-10-30T00:52:38.666Z,17.93
2022-10-30T00:57:42.912Z,17.23
2022-10-30T01:02:47.393Z,21.70
2022-10-30T01:07:50.364Z,16.13
2022-10-30T01:12:56.665Z,20.40
2022-10-30T01:18:19.014Z,17.47
2022-10-30T01:23:35.135Z,20.80
2022-10-30T01:28:52.213Z,21.73
2022-10-30T01:34:05.728Z,18.17
2022-10-30T01:39:15.020Z,16.00
2022-10-30T01:44:21.390Z,17.50
2022-10-30T01:49:48.701Z,17.57
2022-10-30T01:55:00.139Z,18.80
2022-10-30T02:00:06.297Z,18.57
2022-10-30T02:05:37.345Z,17.30
2022-10-30T02:10:41.082Z,14.40
2022-10-30T02:15:46.343Z,14.07
2022-10-30T02:20:50.637Z,18.33
2022-10-30T02:25:53.748Z,24.57
2022-10-30T02:30:56.813Z,15.73
2022-10-30T02:36:02.161Z,15.70
2022-10-30T02:41:05.185Z,15.67
2022-10-30T02:46:08.281Z,16.30
2022-10-30T02:51:12.944Z,14.57
2022-10-30T02:56:16.922Z,17.13
2022-10-30T03:01:20.943Z,14.90
2022-10-30T03:06:26.161Z,21.73
2022-10-30T03:11:29.124Z,13.20
2022-10-30T03:16:33.617Z,19.30
2022-10-30T03:21:37.956Z,18.50
2022-10-30T03:26:40.912Z,17.47
2022-10-30T03:31:45.126Z,19.60
2022-10-30T03:37:11.782Z,16.33
2022-10-30T03:42:15.363Z,21.23
2022-10-30T03:47:19.204Z,19.07
2022-10-30T03:52:23.878Z,17.33
2022-10-30T03:57:28.079Z,18.30
2022-10-30T04:02:48.502Z,20.07
2022-10-30T04:07:58.766Z,18.27
2022-10-30T04:13:03.124Z,19.53
2022-10-30T04:18:07.156Z,22.93
2022-10-30T04:23:15.544Z,21.43
2022-10-30T04:28:18.684Z,15.37
2022-10-30T04:33:22.850Z,24.90
2022-10-30T04:38:28.040Z,17.13
2022-10-30T04:43:32.815Z,17.57
2022-10-30T04:48:37.233Z,16.50
2022-10-30T04:53:42.368Z,18.60
2022-10-30T04:58:48.634Z,15.93
2022-10-30T05:03:54.623Z,20.43
2022-10-30T05:08:59.623Z,15.83
2022-10-30T05:14:12.434Z,14.10
2022-10-30T05:19:15.366Z,15.83
2022-10-30T05:24:27.701Z,14.70
2022-10-30T05:29:30.977Z,17.83
2022-10-30T05:34:34.384Z,18.77
2022-10-30T05:39:38.748Z,17.70
2022-10-30T05:45:01.030Z,17.17
2022-10-30T05:50:07.530Z,17.10
2022-10-30T05:55:14.586Z,15.90
2022-10-30T06:00:28.328Z,17.00
2022-10-30T06:05:33.262Z,20.07
2022-10-30T06:10:39.235Z,17.50
2022-10-30T06:15:56.258Z,18.97
2022-10-30T06:21:01.014Z,16.00
2022-10-30T06:26:25.665Z,15.20
2022-10-30T06:31:31.775Z,17.40
2022-10-30T06:36:36.686Z,15.33
2022-10-30T06:41:41.962Z,14.33
2022-10-30T06:46:57.135Z,18.57
2022-10-30T06:52:00.124Z,13.50
2022-10-30T06:57:04.529Z,15.80
2022-10-30T07:02:26.272Z,13.37
2022-10-30T07:07:36.119Z,15.73
2022-10-30T07:12:40.680Z,19.27
2022-10-30T07:17:57.418Z,13.57
2022-10-30T07:23:01.712Z,14.83
2022-10-30T07:28:06.493Z,19.50
2022-10-30T07:33:17.471Z,18.77
2022-10-30T07:38:40.054Z,17.23
2022-10-30T07:43:59.071Z,16.07
2022-10-30T07:49:19.843Z,14.23
2022-10-30T07:54:29.511Z,13.50
2022-10-30T07:59:39.051Z,15.30
2022-10-30T08:05:17.016Z,19.97
2022-10-30T08:10:40.965Z,22.23
2022-10-30T08:15:45.680Z,16.43
2022-10-30T08:20:50.706Z,16.03
2022-10-30T08:26:00.291Z,22.83
2022-10-30T08:31:06.159Z,11.67
2022-10-30T08:36:27.856Z,18.47
2022-10-30T08:41:31.134Z,20.80
2022-10-30T08:46:35.560Z,17.20
2022-10-30T08:51:38.529Z,14.90
2022-10-30T08:56:42.080Z,18.00
2022-10-30T09:01:51.115Z,15.33
2022-10-30T09:06:57.147Z,13.50
2022-10-30T09:12:37.928Z,17.00
2022-10-30T09:17:42.607Z,14.57
2022-10-30T09:22:45.544Z,17.57
2022-10-30T09:27:48.518Z,25.67
2022-10-30T09:32:59.008Z,15.33
2022-10-30T09:38:21.993Z,11.63
2022-10-30T09:43:37.551Z,16.43
2022-10-30T09:48:54.714Z,13.73
2022-10-30T09:54:12.399Z,15.97
2022-10-30T09:59:36.356Z,15.40
2022-10-30T10:04:45.277Z,15.43
2022-10-30T10:09:50.598Z,16.33
2022-10-30T10:15:24.974Z,22.43
2022-10-30T10:20:33.430Z,15.90
2022-10-30T10:25:39.299Z,13.27
2022-10-30T10:30:51.370Z,15.90
2022-10-30T10:36:07.285Z,17.20
2022-10-30T10:41:19.789Z,20.67
2022-10-30T10:46:35.896Z,16.67
2022-10-30T10:51:43.169Z,20.70
2022-10-30T10:56:49.543Z,17.37
2022-10-30T11:02:01.573Z,18.83
2022-10-30T11:07:18.318Z,20.77
2022-10-30T11:12:28.544Z,20.57
2022-10-30T11:17:43.353Z,17.30
2022-10-30T11:22:51.581Z,16.93
2022-10-30T11:27:56.829Z,20.10
2022-10-30T11:33:00.730Z,14.70
2022-10-30T11:38:20.744Z,16.30
2022-10-30T11:43:25.553Z,16.87
2022-10-30T11:48:31.707Z,14.70
2022-10-30T11:53:40.149Z,12.00
2022-10-30T11:58:47.090Z,14.50
2022-10-30T12:03:50.334Z,12.00
2022-10-30T12:09:03.234Z,13.70
2022-10-30T12:14:06.964Z,17.83
2022-10-30T12:19:15.428Z,12.23
2022-10-30T12:24:22.697Z,12.27
2022-10-30T12:30:02.728Z,14.53
2022-10-30T12:35:03.540Z,12.53
2022-10-30T12:40:14.215Z,130.27
2022-10-30T12:45:21.910Z,49.17
2022-10-30T12:50:28.429Z,11.40
2022-10-30T12:55:37.770Z,15.63
2022-10-30T13:00:47.141Z,14.30
2022-10-30T13:05:54.844Z,17.20
2022-10-30T13:11:05.242Z,17.00
2022-10-30T13:16:14.126Z,82.43
2022-10-30T13:21:24.768Z,15.53
2022-10-30T13:26:37.290Z,24.90
2022-10-30T13:31:52.469Z,21.53
2022-10-30T13:37:03.408Z,20.47
2022-10-30T13:42:31.253Z,22.20
2022-10-30T13:47:44.227Z,13.73
2022-10-30T13:52:56.385Z,12.57
2022-10-30T13:58:06.771Z,15.97
2022-10-30T14:03:24.067Z,17.00
2022-10-30T14:08:36.670Z,19.90
2022-10-30T14:13:54.171Z,14.97
2022-10-30T14:19:01.733Z,16.97
2022-10-30T14:24:11.371Z,20.20
2022-10-30T14:29:42.841Z,17.60
2022-10-30T14:34:47.875Z,17.87
2022-10-30T14:39:52.210Z,18.10
2022-10-30T14:45:10.813Z,17.90
2022-10-30T14:50:23.464Z,23.10
2022-10-30T14:55:32.036Z,23.27
2022-10-30T15:00:43.908Z,17.43
2022-10-30T15:05:53.693Z,11.93
2022-10-30T15:11:14.052Z,14.67
2022-10-30T15:16:23.941Z,19.77
2022-10-30T15:21:29.741Z,19.20
2022-10-30T15:26:36.871Z,30.00
2022-10-30T15:31:41.147Z,39.23
2022-10-30T15:36:44.079Z,37.20
2022-10-30T15:41:49.851Z,31.90
2022-10-30T15:46:56.476Z,32.67
2022-10-30T15:52:00.815Z,26.63
2022-10-30T15:57:49.413Z,28.10
2022-10-30T16:02:28.412Z,32.03
2022-10-30T16:07:32.385Z,30.60
2022-10-30T16:12:36.297Z,24.40
2022-10-30T16:17:40.670Z,20.03
2022-10-30T16:22:43.825Z,22.53
2022-10-30T16:27:47.283Z,23.10
2022-10-30T16:32:54.677Z,27.57
2022-10-30T16:37:58.236Z,29.00
2022-10-30T16:43:03.383Z,28.80
2022-10-30T16:53:23.351Z,34.70
2022-10-30T16:58:30.280Z,34.27
2022-10-30T17:03:38.224Z,36.83
2022-10-30T17:08:43.885Z,36.60
2022-10-30T17:13:59.002Z,38.70
2022-10-30T17:19:39.702Z,44.63
2022-10-30T17:24:42.900Z,129.27
2022-10-30T17:29:46.316Z,52.90
2022-10-30T17:35:00.527Z,149.90
2022-10-30T17:40:03.789Z,55.63
2022-10-30T17:45:10.395Z,68.00
2022-10-30T17:50:14.739Z,44.70
2022-10-30T17:55:26.522Z,47.60
2022-10-30T18:00:29.443Z,49.40
2022-10-30T18:05:36.191Z,48.90
2022-10-30T18:10:39.183Z,67.60
2022-10-30T18:15:45.254Z,70.87
2022-10-30T18:20:49.514Z,63.97
2022-10-30T18:25:52.674Z,60.40
2022-10-30T18:30:58.518Z,61.07
2022-10-30T18:36:02.802Z,67.70
2022-10-30T18:41:06.161Z,72.63
2022-10-30T18:46:11.442Z,76.67
2022-10-30T18:51:19.154Z,84.67
2022-10-30T18:56:26.683Z,93.33
2022-10-30T19:01:30.820Z,98.53
2022-10-30T19:06:37.588Z,89.63
2022-10-30T19:11:44.168Z,88.00
2022-10-30T19:16:47.561Z,81.17
2022-10-30T19:21:52.953Z,75.93
2022-10-30T19:26:56.062Z,74.03
2022-10-30T19:31:58.944Z,64.20
2022-10-30T19:37:03.227Z,62.70
2022-10-30T19:42:06.167Z,60.80
2022-10-30T19:47:10.192Z,53.87
2022-10-30T19:52:16.080Z,55.60
2022-10-30T19:57:19.295Z,53.63
2022-10-30T20:02:22.600Z,52.40
2022-10-30T20:07:27.025Z,45.57
2022-10-30T20:12:29.945Z,47.43
2022-10-30T20:17:32.867Z,47.43
2022-10-30T20:22:37.207Z,49.47
2022-10-30T20:27:41.232Z,44.23
2022-10-30T20:32:44.241Z,63.83
2022-10-30T20:38:01.501Z,48.57
2022-10-30T20:43:04.440Z,43.20
2022-10-30T20:48:07.461Z,88.20
2022-10-30T20:53:14.521Z,91.97
2022-10-30T20:58:17.951Z,103.93
2022-10-30T21:03:20.834Z,133.20
2022-10-30T21:08:25.206Z,80.47
2022-10-30T21:13:28.619Z,54.87
2022-10-30T21:18:32.478Z,42.03
2022-10-30T21:23:36.829Z,37.23
2022-10-30T21:28:40.222Z,36.93
2022-10-30T21:33:43.322Z,37.50
2022-10-30T21:38:48.092Z,35.73
2022-10-30T21:43:52.274Z,30.17
2022-10-30T21:48:55.498Z,28.00
2022-10-30T21:54:00.013Z,28.93
2022-10-30T21:59:04.738Z,26.40
2022-10-30T22:04:09.657Z,13.37
2022-10-30T22:09:16.691Z,8.50
2022-10-30T22:14:19.581Z,7.00
2022-10-30T22:19:22.497Z,8.17
2022-10-30T22:24:26.827Z,10.63
2022-10-30T22:29:29.725Z,18.47
2022-10-30T22:34:32.715Z,23.00
2022-10-30T22:39:36.993Z,21.23
2022-10-30T22:44:39.931Z,18.67
2022-10-30T22:49:42.811Z,15.10
2022-10-30T22:54:47.079Z,12.67
2022-10-30T22:59:49.949Z,9.70
2022-10-30T23:04:52.902Z,7.10
2022-10-30T23:09:57.149Z,6.53
2022-10-30T23:15:00.015Z,11.03
2022-10-30T23:20:02.946Z,13.27
2022-10-30T23:25:07.662Z,12.57
2022-10-30T23:30:12.010Z,9.30
2022-10-30T23:35:15.011Z,9.07
2022-10-30T23:40:19.289Z,6.93
2022-10-30T23:45:22.841Z,9.23
2022-10-30T23:50:25.827Z,10.60
2022-10-30T23:55:30.119Z,15.87
